createdAt,value
2022-08-14T00:03:00.369Z,3849.15674
2022-08-14T00:18:02.797Z,16213.76074
2022-08-14T00:33:15.205Z,14676.4248
2022-08-14T00:48:34.822Z,12515.81738
2022-08-14T01:03:39.083Z,3806.50684
2022-08-14T01:18:41.315Z,3107.62939
2022-08-14T01:33:59.516Z,1039.10754
2022-08-14T01:49:02.896Z,719.23303
2022-08-14T02:04:05.113Z,581.59003
2022-08-14T02:19:23.253Z,458.48682
2022-08-14T02:34:27.658Z,301.45749
2022-08-14T02:49:33.930Z,211.31105
2022-08-14T03:04:36.864Z,73.66807
2022-08-14T03:19:42.432Z,18.41702
2022-08-14T03:34:48.588Z,1.93863
2022-08-14T03:49:58.322Z,0
2022-08-14T04:05:08.139Z,0
2022-08-14T04:20:15.331Z,0
2022-08-14T04:35:56.405Z,0
2022-08-14T04:50:59.372Z,0
2022-08-14T05:06:02.960Z,0
2022-08-14T05:21:59.260Z,0
2022-08-14T05:37:03.811Z,0
2022-08-14T05:52:09.933Z,0
2022-08-14T06:07:12.290Z,0
2022-08-14T06:22:14.523Z,0
2022-08-14T06:37:19.709Z,0
2022-08-14T06:52:24.055Z,0
2022-08-14T07:07:28.795Z,0
2022-08-14T07:22:33.103Z,0
2022-08-14T07:37:58.297Z,0
2022-08-14T07:53:01.442Z,0
2022-08-14T08:08:08.374Z,0
2022-08-14T08:23:40.520Z,0
2022-08-14T08:39:16.743Z,0
2022-08-14T08:54:26.742Z,0
2022-08-14T09:09:34.031Z,0
2022-08-14T09:24:57.104Z,0
2022-08-14T09:39:59.398Z,0
2022-08-14T09:55:02.809Z,0
2022-08-14T10:10:23.652Z,0
2022-08-14T10:25:26.518Z,0
2022-08-14T10:40:38.087Z,0
2022-08-14T10:55:46.089Z,0
2022-08-14T11:10:48.314Z,0
2022-08-14T11:25:52.998Z,0
2022-08-14T11:40:55.979Z,0
2022-08-14T11:55:58.302Z,0
2022-08-14T12:11:00.770Z,0.96932
2022-08-14T12:26:39.566Z,9.69317
2022-08-14T12:41:43.504Z,51.37379
2022-08-14T12:56:45.920Z,127.94981
2022-08-14T13:11:49.085Z,215.18831
2022-08-14T13:27:01.840Z,316.96655
2022-08-14T13:42:05.204Z,769.63745
2022-08-14T13:57:10.885Z,1441.37402
2022-08-14T14:12:36.601Z,1874.65857
2022-08-14T14:27:43.629Z,1688.54968
2022-08-14T14:42:46.000Z,4014.90991
2022-08-14T14:57:52.044Z,1727.32239
2022-08-14T15:13:00.309Z,1520.85791
2022-08-14T15:28:06.872Z,2516.34619
2022-08-14T15:43:13.266Z,4145.76758
2022-08-14T15:58:15.576Z,5213.95459
2022-08-14T16:13:39.740Z,6195.87256
2022-08-14T16:28:44.652Z,5596.83496
2022-08-14T16:43:47.453Z,5498.93359
2022-08-14T16:58:50.066Z,5094.72852
2022-08-14T17:14:00.725Z,5331.24219
2022-08-14T17:29:03.678Z,5349.65918
2022-08-14T17:44:06.356Z,5111.20703
2022-08-14T17:59:11.658Z,5144.16406
2022-08-14T18:14:31.339Z,5674.37988
2022-08-14T18:29:35.441Z,5227.5249
2022-08-14T18:44:44.797Z,5136.40918
2022-08-14T18:59:47.408Z,5321.54883
2022-08-14T19:14:51.096Z,5047.23193
2022-08-14T19:29:53.871Z,4983.25732
2022-08-14T19:44:56.229Z,5014.27539
2022-08-14T20:00:00.058Z,5328.33398
2022-08-14T20:15:02.873Z,4710.87939
2022-08-14T20:30:29.883Z,4504.41504
2022-08-14T20:45:36.866Z,4422.02295
2022-08-14T21:00:52.397Z,4426.86963
2022-08-14T21:15:58.118Z,5190.69092
2022-08-14T21:31:01.282Z,6267.60205
2022-08-14T21:46:03.606Z,7741.93262
2022-08-14T22:01:05.970Z,9346.15137
2022-08-14T22:17:00.558Z,10963.94141
2022-08-14T22:32:14.327Z,12284.15039
2022-08-14T22:47:24.673Z,13102.25391
2022-08-14T23:02:30.246Z,13712.92383
2022-08-14T23:17:39.540Z,14589.18555
2022-08-14T23:32:42.768Z,15664.1582
2022-08-14T23:47:51.654Z,16307.78418
